createdAt,value
2019-02-26T00:00:27.400Z,100048.42
2019-02-26T00:02:59.318Z,100044.80
2019-02-26T00:05:27.977Z,100040.45
2019-02-26T00:07:57.728Z,100042.16
2019-02-26T00:10:26.807Z,100062.01
2019-02-26T00:12:55.848Z,100062.01
2019-02-26T00:15:24.542Z,100064.86
2019-02-26T00:17:53.114Z,100067.56
2019-02-26T00:20:21.428Z,100054.98
2019-02-26T00:22:49.739Z,100054.34
2019-02-26T00:25:20.328Z,100047.44
2019-02-26T00:27:49.641Z,100042.58
2019-02-26T00:30:18.650Z,100035.92
2019-02-26T00:32:47.271Z,100023.56
2019-02-26T00:35:16.470Z,100010.27
2019-02-26T00:37:46.649Z,100013.57
2019-02-26T00:40:19.570Z,100020.15
2019-02-26T00:42:45.842Z,100021.27
2019-02-26T00:45:14.609Z,100019.78
2019-02-26T00:47:43.576Z,100024.69
2019-02-26T00:50:16.557Z,100022.70
2019-02-26T00:52:44.941Z,100023.63
2019-02-26T00:55:14.110Z,100035.94
2019-02-26T00:57:42.986Z,100022.37
2019-02-26T01:00:14.969Z,100022.57
2019-02-26T01:02:43.863Z,100021.23
2019-02-26T01:05:15.526Z,100019.89
2019-02-26T01:07:46.634Z,100013.77
2019-02-26T01:10:16.469Z,100021.19
2019-02-26T01:12:44.868Z,100017.21
2019-02-26T01:15:18.148Z,100011.61
2019-02-26T01:17:46.627Z,100013.73
2019-02-26T01:20:20.114Z,100016.30
2019-02-26T01:22:49.161Z,100006.75
2019-02-26T01:25:18.498Z,100011.87
2019-02-26T01:27:48.322Z,100017.98
2019-02-26T01:30:20.755Z,100016.95
2019-02-26T01:32:47.875Z,100014.56
2019-02-26T01:35:16.271Z,100009.70
2019-02-26T01:37:44.589Z,100009.31
2019-02-26T01:40:16.401Z,100003.33
2019-02-26T01:42:47.216Z,99996.00
2019-02-26T01:45:14.177Z,99997.86
2019-02-26T01:47:43.466Z,99996.84
2019-02-26T01:50:15.921Z,100001.61
2019-02-26T01:52:44.073Z,100011.14
2019-02-26T01:55:12.671Z,100010.04
2019-02-26T01:57:43.491Z,100029.39
2019-02-26T02:00:17.051Z,100014.37
2019-02-26T02:02:45.633Z,100005.84
2019-02-26T02:05:14.047Z,100000.36
2019-02-26T02:07:44.834Z,100005.09
2019-02-26T02:10:17.418Z,99997.43
2019-02-26T02:12:45.795Z,99997.97
2019-02-26T02:15:18.256Z,99987.73
2019-02-26T02:17:45.756Z,99987.73
2019-02-26T02:20:18.103Z,99979.64
2019-02-26T02:22:45.556Z,99979.17
2019-02-26T02:25:13.903Z,99979.95
2019-02-26T02:27:47.631Z,99977.81
2019-02-26T02:30:22.613Z,99982.55
2019-02-26T02:32:50.401Z,99971.30
2019-02-26T02:35:19.214Z,99964.84
2019-02-26T02:37:46.159Z,99969.81
2019-02-26T02:40:15.162Z,99969.26
2019-02-26T02:42:45.752Z,99968.31
2019-02-26T02:45:17.051Z,99966.06
2019-02-26T02:47:43.924Z,99968.85
2019-02-26T02:50:15.088Z,99973.70
2019-02-26T02:52:44.189Z,99968.45
2019-02-26T02:55:13.853Z,99966.55
2019-02-26T02:57:42.953Z,99964.47
2019-02-26T03:00:16.607Z,99963.00
2019-02-26T03:02:46.401Z,99963.26
2019-02-26T03:05:15.780Z,99960.59
2019-02-26T03:07:47.516Z,99952.30
2019-02-26T03:10:15.235Z,99954.36
2019-02-26T03:12:47.689Z,99947.95
2019-02-26T03:15:14.936Z,99949.59
2019-02-26T03:17:43.250Z,99950.48
2019-02-26T03:20:12.813Z,99951.32
2019-02-26T03:22:43.165Z,99961.91
2019-02-26T03:25:17.661Z,99956.95
2019-02-26T03:27:46.150Z,99960.23
2019-02-26T03:30:32.239Z,99959.16
2019-02-26T03:32:58.542Z,99961.71
2019-02-26T03:35:23.184Z,99949.74
2019-02-26T03:37:54.871Z,99935.96
2019-02-26T03:40:24.197Z,99918.67
2019-02-26T03:42:52.257Z,99907.59
2019-02-26T03:45:24.108Z,99898.08
2019-02-26T03:47:50.766Z,99892.34
2019-02-26T03:50:19.244Z,99908.91
2019-02-26T03:52:48.000Z,99920.45
2019-02-26T03:55:18.925Z,99923.73
2019-02-26T03:57:48.213Z,99927.80
2019-02-26T04:00:20.065Z,99928.08
2019-02-26T04:02:51.320Z,99934.11
2019-02-26T04:05:18.930Z,99928.48
2019-02-26T04:07:49.851Z,99933.17
2019-02-26T04:10:17.332Z,99939.36
2019-02-26T04:12:48.617Z,99934.32
2019-02-26T04:15:17.181Z,99935.08
2019-02-26T04:17:45.854Z,99918.16
2019-02-26T04:20:15.800Z,99920.17
2019-02-26T04:22:47.069Z,99916.68
2019-02-26T04:25:36.926Z,99917.02
2019-02-26T04:28:11.625Z,99910.63
2019-02-26T04:30:58.129Z,99900.42
2019-02-26T04:33:36.010Z,99906.79
2019-02-26T04:36:26.570Z,99902.96
2019-02-26T04:39:18.403Z,99869.84
2019-02-26T04:41:50.936Z,99886.89
2019-02-26T04:44:34.499Z,99892.58
2019-02-26T04:47:05.922Z,99885.25
2019-02-26T04:49:35.997Z,99877.84
2019-02-26T04:52:05.602Z,99881.33
2019-02-26T04:54:35.902Z,99880.50
2019-02-26T04:57:03.790Z,99876.92
2019-02-26T04:59:32.905Z,99870.38
2019-02-26T05:02:02.297Z,99868.55
2019-02-26T05:04:34.093Z,99862.48
2019-02-26T05:07:04.371Z,99862.23
2019-02-26T05:09:33.302Z,99862.92
2019-02-26T05:12:01.230Z,99861.92
2019-02-26T05:14:29.548Z,99863.82
2019-02-26T05:16:57.861Z,99862.76
2019-02-26T05:19:26.182Z,99867.97
2019-02-26T05:21:56.781Z,99864.40
2019-02-26T05:24:26.324Z,99863.14
2019-02-26T05:26:54.835Z,99865.30
2019-02-26T05:29:23.201Z,99865.05
2019-02-26T05:31:51.523Z,99865.47
2019-02-26T05:34:20.649Z,99860.36
2019-02-26T05:36:49.878Z,99856.37
2019-02-26T05:39:20.988Z,99869.85
2019-02-26T05:41:52.309Z,99873.76
2019-02-26T05:44:18.590Z,99873.76
2019-02-26T05:46:49.955Z,99880.00
2019-02-26T05:49:19.495Z,99881.15
2019-02-26T05:51:47.636Z,99884.53
2019-02-26T05:54:18.557Z,99889.73
2019-02-26T05:56:46.909Z,99893.31
2019-02-26T05:59:18.109Z,99903.58
2019-02-26T06:01:47.477Z,99911.26
2019-02-26T06:04:19.581Z,99903.59
2019-02-26T06:06:50.235Z,99884.33
2019-02-26T06:09:16.471Z,99885.16
2019-02-26T06:11:47.858Z,99901.91
2019-02-26T06:14:14.836Z,99889.80
2019-02-26T06:16:45.494Z,99879.50
2019-02-26T06:19:18.166Z,99874.39
2019-02-26T06:21:47.391Z,99863.22
2019-02-26T06:24:20.265Z,99868.47
2019-02-26T06:26:46.054Z,99879.30
2019-02-26T06:29:14.377Z,99878.84
2019-02-26T06:31:44.603Z,99873.34
2019-02-26T06:34:14.357Z,99871.69
2019-02-26T06:36:44.244Z,99883.44
2019-02-26T06:39:13.973Z,99888.81
2019-02-26T06:41:44.349Z,99894.18
2019-02-26T06:44:12.630Z,99880.84
2019-02-26T06:46:40.966Z,99873.66
2019-02-26T06:49:09.272Z,99870.09
2019-02-26T06:51:37.593Z,99881.60
2019-02-26T06:54:05.910Z,99888.98
2019-02-26T06:56:37.076Z,99890.96
2019-02-26T06:59:09.722Z,99902.02
2019-02-26T07:01:39.547Z,99898.71
2019-02-26T07:04:12.188Z,99912.84
2019-02-26T07:06:38.080Z,99909.20
2019-02-26T07:09:06.441Z,99902.38
2019-02-26T07:11:36.190Z,99900.78
2019-02-26T07:14:05.555Z,99902.53
2019-02-26T07:16:34.813Z,99908.55
2019-02-26T07:19:03.923Z,99912.16
2019-02-26T07:21:33.776Z,99903.45
2019-02-26T07:24:03.482Z,99884.13
2019-02-26T07:26:32.202Z,99875.03
2019-02-26T07:29:00.507Z,99874.33
2019-02-26T07:31:30.923Z,99872.02
2019-02-26T07:34:01.376Z,99875.52
2019-02-26T07:36:28.995Z,99887.12
2019-02-26T07:38:57.297Z,99884.47
2019-02-26T07:41:27.839Z,99884.78
2019-02-26T07:43:55.760Z,99883.22
2019-02-26T07:46:24.072Z,99875.89
2019-02-26T07:48:54.026Z,99872.92
2019-02-26T07:51:22.787Z,99870.58
2019-02-26T07:53:53.175Z,99872.71
2019-02-26T07:56:23.099Z,99885.34
2019-02-26T07:58:51.884Z,99887.59
2019-02-26T08:01:20.515Z,99891.35
2019-02-26T08:03:50.955Z,99871.61
2019-02-26T08:06:18.940Z,99873.45
2019-02-26T08:08:48.933Z,99877.81
2019-02-26T08:11:17.502Z,99886.53
2019-02-26T08:13:46.211Z,99878.94
2019-02-26T08:16:14.532Z,99882.87
2019-02-26T08:18:43.998Z,99875.43
2019-02-26T08:21:12.323Z,99886.02
2019-02-26T08:23:41.301Z,99887.41
2019-02-26T08:26:10.694Z,99885.67
2019-02-26T08:28:41.392Z,99877.84
2019-02-26T08:31:13.367Z,99884.30
2019-02-26T08:33:39.497Z,99885.89
2019-02-26T08:36:07.866Z,99872.79
2019-02-26T08:38:36.206Z,99876.03
2019-02-26T08:41:04.859Z,99883.12
2019-02-26T08:43:33.162Z,99886.97
2019-02-26T08:46:01.489Z,99892.53
2019-02-26T08:48:29.796Z,99882.41
2019-02-26T08:51:00.822Z,99888.27
2019-02-26T08:53:28.964Z,99890.02
2019-02-26T08:55:59.676Z,99895.30
2019-02-26T08:58:28.890Z,99883.70
2019-02-26T09:00:57.547Z,99893.13
2019-02-26T09:03:25.867Z,99889.45
2019-02-26T09:05:56.250Z,99885.07
2019-02-26T09:08:24.317Z,99881.02
2019-02-26T09:10:52.627Z,99881.77
2019-02-26T09:13:20.936Z,99886.59
2019-02-26T09:15:49.403Z,99907.48
2019-02-26T09:18:20.283Z,99907.34
2019-02-26T09:20:47.761Z,99895.09
2019-02-26T09:23:18.812Z,99884.27
2019-02-26T09:25:51.532Z,99875.83
2019-02-26T09:28:16.694Z,99883.19
2019-02-26T09:30:45.035Z,99884.14
2019-02-26T09:33:13.466Z,99882.73
2019-02-26T09:35:41.770Z,99887.84
2019-02-26T09:38:12.215Z,99895.59
2019-02-26T09:40:40.121Z,99895.23
2019-02-26T09:43:08.733Z,99895.23
2019-02-26T09:45:37.038Z,99892.02
2019-02-26T09:48:05.704Z,99862.86
2019-02-26T09:50:36.768Z,99855.09
2019-02-26T09:53:04.788Z,99866.67
2019-02-26T09:55:33.096Z,99870.46
2019-02-26T09:58:02.574Z,99865.20
2019-02-26T10:00:31.079Z,99863.92
2019-02-26T10:02:59.684Z,99853.45
2019-02-26T10:05:27.996Z,99857.43
2019-02-26T10:07:59.305Z,99839.38
2019-02-26T10:10:29.101Z,99842.07
2019-02-26T10:12:59.468Z,99849.30
2019-02-26T10:15:26.535Z,99844.24
2019-02-26T10:17:58.320Z,99839.97
2019-02-26T10:20:29.697Z,99834.72
2019-02-26T10:23:00.018Z,99829.34
2019-02-26T10:25:29.355Z,99827.75
2019-02-26T10:27:56.563Z,99821.73
2019-02-26T10:30:24.958Z,99822.82
2019-02-26T10:32:53.578Z,99821.34
2019-02-26T10:35:32.580Z,99823.19
2019-02-26T10:37:57.074Z,99824.19
2019-02-26T10:40:34.810Z,99828.30
2019-02-26T10:42:55.922Z,99816.72
2019-02-26T10:45:26.734Z,99833.16
2019-02-26T10:47:56.690Z,99822.85
2019-02-26T10:50:31.329Z,99821.52
2019-02-26T10:53:01.756Z,99806.35
2019-02-26T10:55:35.415Z,99794.76
2019-02-26T10:57:58.653Z,99797.59
2019-02-26T11:00:34.061Z,99793.05
2019-02-26T11:03:00.983Z,99784.98
2019-02-26T11:05:29.472Z,99786.67
2019-02-26T11:08:01.391Z,99785.27
2019-02-26T11:10:28.214Z,99784.69
2019-02-26T11:12:59.370Z,99774.41
2019-02-26T11:15:30.208Z,99790.91
2019-02-26T11:17:57.028Z,99787.19
2019-02-26T11:20:27.848Z,99780.06
2019-02-26T11:22:55.538Z,99780.82
2019-02-26T11:25:26.905Z,99769.80
2019-02-26T11:27:53.884Z,99768.50
2019-02-26T11:30:28.542Z,99767.76
2019-02-26T11:32:58.682Z,99756.87
2019-02-26T11:35:26.742Z,99767.25
2019-02-26T11:37:55.374Z,99743.17
2019-02-26T11:40:28.217Z,99733.41
2019-02-26T11:42:55.570Z,99736.01
2019-02-26T11:45:24.590Z,99722.86
2019-02-26T11:47:52.982Z,99733.53
2019-02-26T11:50:26.912Z,99710.67
2019-02-26T11:52:55.065Z,99717.86
2019-02-26T11:55:26.207Z,99738.69
2019-02-26T11:57:54.041Z,99738.91
2019-02-26T12:00:42.795Z,99745.55
2019-02-26T12:03:10.911Z,99743.97
2019-02-26T12:05:41.787Z,99744.60
2019-02-26T12:08:11.566Z,99751.80
2019-02-26T12:10:40.588Z,99762.72
2019-02-26T12:13:09.273Z,99757.53
2019-02-26T12:15:39.882Z,99750.45
2019-02-26T12:18:10.120Z,99740.80
2019-02-26T12:20:40.504Z,99735.45
2019-02-26T12:23:10.623Z,99734.64
2019-02-26T12:25:38.350Z,99719.63
2019-02-26T12:28:08.239Z,99706.10
2019-02-26T12:30:37.665Z,99711.69
2019-02-26T12:33:09.524Z,99711.45
2019-02-26T12:35:37.998Z,99712.06
2019-02-26T12:38:17.221Z,99718.37
2019-02-26T12:40:38.007Z,99704.70
2019-02-26T12:43:11.105Z,99707.91
2019-02-26T12:45:38.652Z,99712.58
2019-02-26T12:48:10.200Z,99713.14
2019-02-26T12:50:40.123Z,99707.66
2019-02-26T12:53:11.509Z,99700.89
2019-02-26T12:55:38.461Z,99704.83
2019-02-26T12:58:07.468Z,99696.48
2019-02-26T13:00:38.377Z,99698.95
2019-02-26T13:03:08.406Z,99696.94
2019-02-26T13:05:38.400Z,99687.13
2019-02-26T13:08:09.757Z,99687.21
2019-02-26T13:10:38.485Z,99692.36
2019-02-26T13:13:07.501Z,99687.17
2019-02-26T13:15:36.392Z,99692.97
2019-02-26T13:18:04.991Z,99695.63
2019-02-26T13:20:33.282Z,99687.12
2019-02-26T13:23:16.247Z,99673.85
2019-02-26T13:25:31.667Z,99679.71
2019-02-26T13:28:00.353Z,99675.59
2019-02-26T13:30:29.504Z,99595.41
2019-02-26T13:33:00.907Z,99670.58
2019-02-26T13:35:28.807Z,99668.08
2019-02-26T13:37:59.374Z,99668.88
2019-02-26T13:40:27.821Z,99659.19
2019-02-26T13:45:27.296Z,99653.16
2019-02-26T13:48:01.021Z,99659.05
2019-02-26T13:50:28.065Z,99661.41
2019-02-26T13:52:56.398Z,99658.21
2019-02-26T13:55:24.783Z,99658.36
2019-02-26T13:57:53.226Z,99642.17
2019-02-26T14:00:26.223Z,99635.86
2019-02-26T14:02:51.651Z,99631.59
2019-02-26T14:05:20.174Z,99629.34
2019-02-26T14:07:48.542Z,99628.70
2019-02-26T14:10:24.302Z,99623.48
2019-02-26T14:12:53.107Z,99639.34
2019-02-26T14:15:28.777Z,99624.92
2019-02-26T14:17:57.184Z,99616.38
2019-02-26T14:20:25.562Z,99616.68
2019-02-26T14:22:53.870Z,99615.41
2019-02-26T14:25:22.366Z,99623.46
2019-02-26T14:27:50.669Z,99630.97
2019-02-26T14:30:20.255Z,99623.36
2019-02-26T14:32:48.620Z,99617.73
2019-02-26T14:35:17.165Z,99615.66
2019-02-26T14:37:45.567Z,99602.27
2019-02-26T14:40:18.750Z,99616.25
2019-02-26T14:42:47.210Z,99614.22
2019-02-26T14:45:17.928Z,99617.73
2019-02-26T14:47:46.324Z,99607.27
2019-02-26T14:50:20.086Z,99610.82
2019-02-26T14:52:48.532Z,99600.22
2019-02-26T14:55:17.197Z,99600.02
2019-02-26T14:57:45.582Z,99599.70
2019-02-26T15:00:27.922Z,99591.61
2019-02-26T15:02:56.978Z,99600.70
2019-02-26T15:05:25.668Z,99590.17
2019-02-26T15:07:53.991Z,99594.64
2019-02-26T15:10:22.398Z,99602.53
2019-02-26T15:12:50.770Z,99598.02
2019-02-26T15:15:19.912Z,99604.70
2019-02-26T15:17:48.317Z,99601.64
2019-02-26T15:20:21.053Z,99597.13
2019-02-26T15:22:49.464Z,99586.35
2019-02-26T15:25:29.219Z,99585.44
2019-02-26T15:28:04.634Z,99584.24
2019-02-26T15:30:28.011Z,99596.10
2019-02-26T15:32:56.339Z,99596.67
2019-02-26T15:35:25.018Z,99599.38
2019-02-26T15:37:53.366Z,99597.21
2019-02-26T15:40:22.209Z,99583.03
2019-02-26T15:42:52.729Z,99582.13
2019-02-26T15:45:26.035Z,99587.66
2019-02-26T15:47:54.473Z,99582.00
2019-02-26T15:50:23.251Z,99580.64
2019-02-26T15:52:52.971Z,99584.84
2019-02-26T15:55:25.898Z,99581.21
2019-02-26T15:57:53.726Z,99583.13
2019-02-26T16:00:24.460Z,99572.89
2019-02-26T16:02:53.678Z,99588.98
2019-02-26T16:05:24.861Z,99585.62
2019-02-26T16:07:53.240Z,99583.98
2019-02-26T16:10:22.816Z,99584.80
2019-02-26T16:12:51.372Z,99578.88
2019-02-26T16:15:19.889Z,99588.26
2019-02-26T16:17:48.208Z,99577.43
2019-02-26T16:20:18.754Z,99591.20
2019-02-26T16:22:47.940Z,99594.91
2019-02-26T16:25:16.245Z,99583.82
2019-02-26T16:27:44.623Z,99597.82
2019-02-26T16:30:27.862Z,99584.82
2019-02-26T16:32:56.231Z,99584.95
2019-02-26T16:35:25.598Z,99588.22
2019-02-26T16:37:54.121Z,99580.25
2019-02-26T16:40:22.502Z,99584.32
2019-02-26T16:42:51.011Z,99581.92
2019-02-26T16:45:23.090Z,99578.16
2019-02-26T16:47:51.489Z,99583.05
2019-02-26T16:50:24.974Z,99589.08
2019-02-26T16:52:53.295Z,99593.29
2019-02-26T16:55:21.830Z,99596.69
2019-02-26T16:57:51.281Z,99609.50
2019-02-26T17:00:24.957Z,99617.03
2019-02-26T17:02:53.327Z,99627.80
2019-02-26T17:05:21.939Z,99620.47
2019-02-26T17:07:50.222Z,99619.66
2019-02-26T17:10:20.848Z,99613.63
2019-02-26T17:12:53.308Z,99640.30
2019-02-26T17:15:27.051Z,99632.37
2019-02-26T17:17:55.389Z,99635.85
2019-02-26T17:20:26.284Z,99635.40
2019-02-26T17:22:54.466Z,99634.80
2019-02-26T17:25:27.539Z,99636.11
2019-02-26T17:27:53.537Z,99638.92
2019-02-26T17:30:23.853Z,99640.91
2019-02-26T17:32:51.980Z,99642.03
2019-02-26T17:35:20.509Z,99635.45
2019-02-26T17:37:48.806Z,99637.50
2019-02-26T17:40:18.778Z,99634.34
2019-02-26T17:42:48.832Z,99633.02
2019-02-26T17:45:28.635Z,99636.95
2019-02-26T17:47:57.514Z,99632.95
2019-02-26T17:50:43.376Z,99622.37
2019-02-26T17:53:10.774Z,99621.51
2019-02-26T17:55:39.181Z,99627.84
2019-02-26T17:58:09.774Z,99630.47
2019-02-26T18:00:42.039Z,99630.33
2019-02-26T18:03:10.357Z,99631.64
2019-02-26T18:05:50.410Z,99635.26
2019-02-26T18:08:08.822Z,99625.85
2019-02-26T18:10:37.135Z,99621.41
2019-02-26T18:13:05.880Z,99606.83
2019-02-26T18:15:34.343Z,99605.64
2019-02-26T18:18:02.701Z,99605.27
2019-02-26T18:20:31.333Z,99601.47
2019-02-26T18:23:00.737Z,99600.02
2019-02-26T18:25:29.327Z,99607.63
2019-02-26T18:27:57.688Z,99606.59
2019-02-26T18:30:27.445Z,99611.51
2019-02-26T18:32:58.667Z,99610.70
2019-02-26T18:35:25.810Z,99597.84
2019-02-26T18:37:54.117Z,99596.08
2019-02-26T18:40:22.524Z,99588.73
2019-02-26T18:42:50.825Z,99576.38
2019-02-26T18:45:27.922Z,99558.64
2019-02-26T18:47:57.275Z,99558.64
2019-02-26T18:50:28.621Z,99561.99
2019-02-26T18:52:58.057Z,99569.15
2019-02-26T18:55:28.403Z,99566.52
2019-02-26T18:57:56.728Z,99569.50
2019-02-26T19:00:28.208Z,99576.47
2019-02-26T19:02:56.864Z,99587.16
2019-02-26T19:05:25.261Z,99588.08
2019-02-26T19:07:53.567Z,99595.17
2019-02-26T19:10:22.336Z,99604.13
2019-02-26T19:12:50.707Z,99603.39
2019-02-26T19:15:21.672Z,99611.34
2019-02-26T19:17:52.120Z,99600.95
2019-02-26T19:20:29.227Z,99602.79
2019-02-26T19:22:58.903Z,99604.51
2019-02-26T19:25:27.654Z,99604.61
2019-02-26T19:27:55.981Z,99605.92
2019-02-26T19:30:24.719Z,99605.55
2019-02-26T19:32:53.045Z,99609.23
2019-02-26T19:35:21.495Z,99609.55
2019-02-26T19:37:55.949Z,99604.77
2019-02-26T19:40:30.243Z,99602.92
2019-02-26T19:42:58.245Z,99599.38
2019-02-26T19:45:26.924Z,99598.26
2019-02-26T19:47:55.945Z,99596.03
2019-02-26T19:50:24.938Z,99596.89
2019-02-26T19:52:56.902Z,99608.64
2019-02-26T19:55:27.090Z,99604.75
2019-02-26T19:57:55.525Z,99611.47
2019-02-26T20:00:23.897Z,99602.95
2019-02-26T20:02:52.236Z,99606.00
2019-02-26T20:05:20.535Z,99605.49
2019-02-26T20:07:48.892Z,99605.95
2019-02-26T20:10:19.935Z,99610.39
2019-02-26T20:12:48.313Z,99605.67
2019-02-26T20:15:16.705Z,99606.98
2019-02-26T20:17:48.871Z,99600.33
2019-02-26T20:20:19.890Z,99610.16
2019-02-26T20:22:48.193Z,99609.40
2019-02-26T20:25:19.168Z,99612.98
2019-02-26T20:27:48.178Z,99609.83
2019-02-26T20:30:23.484Z,99611.13
2019-02-26T20:32:52.018Z,99613.44
2019-02-26T20:35:20.748Z,99611.02
2019-02-26T20:37:49.659Z,99611.45
2019-02-26T20:40:19.827Z,99584.86
2019-02-26T20:42:48.134Z,99619.86
2019-02-26T20:45:18.867Z,99623.47
2019-02-26T20:47:48.172Z,99624.77
2019-02-26T20:50:20.067Z,99626.00
2019-02-26T20:52:47.173Z,99614.48
2019-02-26T20:55:19.328Z,99617.55
2019-02-26T20:57:48.414Z,99617.98
2019-02-26T21:00:18.527Z,99621.42
2019-02-26T21:02:47.498Z,99619.36
2019-02-26T21:05:15.960Z,99625.23
2019-02-26T21:07:44.403Z,99618.77
2019-02-26T21:10:16.045Z,99613.13
2019-02-26T21:12:44.471Z,99619.74
2019-02-26T21:15:15.821Z,99623.21
2019-02-26T21:17:44.183Z,99615.20
2019-02-26T21:20:13.325Z,99614.88
2019-02-26T21:22:41.720Z,99611.83
2019-02-26T21:25:12.184Z,99604.87
2019-02-26T21:27:40.574Z,99615.93
2019-02-26T21:30:14.761Z,99611.30
2019-02-26T21:32:43.104Z,99617.61
2019-02-26T21:35:12.037Z,99621.36
2019-02-26T21:37:40.706Z,99617.06
2019-02-26T21:40:15.930Z,99617.68
2019-02-26T21:42:42.364Z,99614.41
2019-02-26T21:45:18.960Z,99612.23
2019-02-26T21:47:47.333Z,99611.41
2019-02-26T21:50:16.180Z,99607.31
2019-02-26T21:52:59.104Z,99616.72
2019-02-26T21:55:15.774Z,99612.67
2019-02-26T21:57:44.088Z,99609.06
2019-02-26T22:00:20.553Z,99604.79
2019-02-26T22:02:51.961Z,99605.18
2019-02-26T22:05:18.899Z,99606.89
2019-02-26T22:07:47.204Z,99610.56
2019-02-26T22:10:17.732Z,99606.19
2019-02-26T22:12:46.107Z,99607.53
2019-02-26T22:15:16.127Z,99602.14
2019-02-26T22:17:44.817Z,99612.11
2019-02-26T22:20:23.375Z,99604.59
2019-02-26T22:22:46.773Z,99597.39
2019-02-26T22:25:17.010Z,99595.49
2019-02-26T22:27:45.377Z,99594.37
2019-02-26T22:30:21.482Z,99594.50
2019-02-26T22:32:48.920Z,99595.98
2019-02-26T22:35:17.224Z,99584.08
2019-02-26T22:37:45.610Z,99584.23
2019-02-26T22:40:17.148Z,99588.66
2019-02-26T22:42:45.449Z,99582.60
2019-02-26T22:45:15.014Z,99580.86
2019-02-26T22:47:44.249Z,99586.02
2019-02-26T22:50:14.559Z,99588.16
2019-02-26T22:52:43.120Z,99582.23
2019-02-26T22:55:16.641Z,99585.25
2019-02-26T22:57:45.990Z,99582.52
2019-02-26T23:00:19.477Z,99579.20
2019-02-26T23:02:47.864Z,99576.16
2019-02-26T23:05:16.338Z,99574.22
2019-02-26T23:07:44.728Z,99572.44
2019-02-26T23:10:13.096Z,99573.78
2019-02-26T23:12:41.468Z,99568.11
2019-02-26T23:15:12.010Z,99559.53
2019-02-26T23:17:40.539Z,99562.09
2019-02-26T23:20:10.869Z,99565.04
2019-02-26T23:22:39.171Z,99567.62
2019-02-26T23:25:09.334Z,99560.68
2019-02-26T23:27:37.714Z,99571.82
2019-02-26T23:30:09.293Z,99574.13
2019-02-26T23:32:38.917Z,99564.09
2019-02-26T23:35:12.435Z,99560.95
2019-02-26T23:37:40.825Z,99565.38
2019-02-26T23:40:11.633Z,99566.29
2019-02-26T23:42:39.959Z,99558.05
2019-02-26T23:45:12.169Z,99555.42
2019-02-26T23:47:40.844Z,99560.51
2019-02-26T23:50:11.085Z,99563.52
2019-02-26T23:52:39.849Z,99563.32
2019-02-26T23:55:13.004Z,99565.27
2019-02-26T23:57:40.634Z,99557.14
